sensor_id;sensor_type;location;lat;lon;timestamp;P1;durP1;ratioP1;P2;durP2;ratioP2
75912;SDS011;64592;52.168;21.040;2023-08-07T00:04:46;0.88;;;0.80;;
75912;SDS011;64592;52.168;21.040;2023-08-07T00:09:48;0.85;;;0.80;;
75912;SDS011;64592;52.168;21.040;2023-08-07T00:14:50;1.20;;;0.90;;
75912;SDS011;64592;52.168;21.040;2023-08-07T00:19:53;2.70;;;0.85;;
75912;SDS011;64592;52.168;21.040;2023-08-07T00:24:54;1.48;;;0.85;;
75912;SDS011;64592;52.168;21.040;2023-08-07T00:29:56;1.65;;;1.10;;
75912;SDS011;64592;52.168;21.040;2023-08-07T00:35:00;0.60;;;0.60;;
75912;SDS011;64592;52.168;21.040;2023-08-07T00:40:01;1.77;;;0.80;;
75912;SDS011;64592;52.168;21.040;2023-08-07T00:45:04;1.65;;;0.85;;
75912;SDS011;64592;52.168;21.040;2023-08-07T00:50:08;1.60;;;1.10;;
75912;SDS011;64592;52.168;21.040;2023-08-07T00:55:10;1.50;;;1.35;;
75912;SDS011;64592;52.168;21.040;2023-08-07T01:00:13;1.52;;;1.20;;
75912;SDS011;64592;52.168;21.040;2023-08-07T01:05:17;2.00;;;1.38;;
75912;SDS011;64592;52.168;21.040;2023-08-07T01:10:20;4.60;;;1.95;;
75912;SDS011;64592;52.168;21.040;2023-08-07T01:15:30;2.90;;;1.40;;
75912;SDS011;64592;52.168;21.040;2023-08-07T01:20:34;2.42;;;1.42;;
75912;SDS011;64592;52.168;21.040;2023-08-07T01:25:37;2.40;;;1.50;;
75912;SDS011;64592;52.168;21.040;2023-08-07T01:30:40;2.53;;;1.60;;
75912;SDS011;64592;52.168;21.040;2023-08-07T01:35:46;1.60;;;1.17;;
75912;SDS011;64592;52.168;21.040;2023-08-07T01:40:52;3.40;;;1.73;;
75912;SDS011;64592;52.168;21.040;2023-08-07T01:45:54;2.28;;;1.50;;
75912;SDS011;64592;52.168;21.040;2023-08-07T01:50:56;2.88;;;1.80;;
75912;SDS011;64592;52.168;21.040;2023-08-07T01:55:59;2.08;;;1.50;;
75912;SDS011;64592;52.168;21.040;2023-08-07T02:01:00;2.20;;;1.60;;
75912;SDS011;64592;52.168;21.040;2023-08-07T02:06:02;1.95;;;1.50;;
75912;SDS011;64592;52.168;21.040;2023-08-07T02:11:05;2.63;;;1.70;;
75912;SDS011;64592;52.168;21.040;2023-08-07T02:16:07;2.40;;;1.65;;
75912;SDS011;64592;52.168;21.040;2023-08-07T02:21:08;2.45;;;1.63;;
75912;SDS011;64592;52.168;21.040;2023-08-07T02:26:11;2.30;;;1.60;;
75912;SDS011;64592;52.168;21.040;2023-08-07T02:31:13;4.50;;;1.98;;
75912;SDS011;64592;52.168;21.040;2023-08-07T02:36:15;2.47;;;1.77;;
75912;SDS011;64592;52.168;21.040;2023-08-07T02:41:18;2.92;;;2.00;;
75912;SDS011;64592;52.168;21.040;2023-08-07T02:46:19;1.85;;;1.67;;
75912;SDS011;64592;52.168;21.040;2023-08-07T02:51:21;4.53;;;1.80;;
75912;SDS011;64592;52.168;21.040;2023-08-07T02:56:24;3.25;;;1.90;;
75912;SDS011;64592;52.168;21.040;2023-08-07T03:01:25;2.58;;;1.63;;
75912;SDS011;64592;52.168;21.040;2023-08-07T03:06:27;4.30;;;1.35;;
75912;SDS011;64592;52.168;21.040;2023-08-07T03:11:30;2.63;;;1.52;;
75912;SDS011;64592;52.168;21.040;2023-08-07T03:16:32;3.33;;;1.70;;
75912;SDS011;64592;52.168;21.040;2023-08-07T03:21:33;2.50;;;2.00;;
75912;SDS011;64592;52.168;21.040;2023-08-07T03:26:36;2.63;;;1.90;;
75912;SDS011;64592;52.168;21.040;2023-08-07T03:31:38;3.22;;;1.98;;
75912;SDS011;64592;52.168;21.040;2023-08-07T03:36:40;2.80;;;2.10;;
75912;SDS011;64592;52.168;21.040;2023-08-07T03:41:43;3.58;;;2.05;;
75912;SDS011;64592;52.168;21.040;2023-08-07T03:46:44;3.42;;;2.15;;
75912;SDS011;64592;52.168;21.040;2023-08-07T03:51:46;4.05;;;2.30;;
75912;SDS011;64592;52.168;21.040;2023-08-07T03:56:49;2.67;;;2.10;;
75912;SDS011;64592;52.168;21.040;2023-08-07T04:01:51;3.38;;;2.17;;
75912;SDS011;64592;52.168;21.040;2023-08-07T04:06:53;2.85;;;2.40;;
75912;SDS011;64592;52.168;21.040;2023-08-07T04:11:56;3.70;;;2.10;;
75912;SDS011;64592;52.168;21.040;2023-08-07T04:16:57;3.17;;;2.10;;
75912;SDS011;64592;52.168;21.040;2023-08-07T04:22:00;3.65;;;1.80;;
75912;SDS011;64592;52.168;21.040;2023-08-07T04:27:04;3.63;;;2.00;;
75912;SDS011;64592;52.168;21.040;2023-08-07T04:32:06;4.53;;;1.70;;
75912;SDS011;64592;52.168;21.040;2023-08-07T04:37:08;2.88;;;2.17;;
75912;SDS011;64592;52.168;21.040;2023-08-07T04:42:11;2.70;;;1.70;;
75912;SDS011;64592;52.168;21.040;2023-08-07T04:47:13;3.38;;;1.60;;
75912;SDS011;64592;52.168;21.040;2023-08-07T04:52:14;2.03;;;1.30;;
75912;SDS011;64592;52.168;21.040;2023-08-07T04:57:17;3.80;;;1.67;;
75912;SDS011;64592;52.168;21.040;2023-08-07T05:02:19;3.78;;;1.65;;
75912;SDS011;64592;52.168;21.040;2023-08-07T05:07:21;3.30;;;2.13;;
75912;SDS011;64592;52.168;21.040;2023-08-07T05:12:24;4.22;;;1.95;;
75912;SDS011;64592;52.168;21.040;2023-08-07T05:17:25;2.83;;;1.88;;
75912;SDS011;64592;52.168;21.040;2023-08-07T05:22:27;3.92;;;1.77;;
75912;SDS011;64592;52.168;21.040;2023-08-07T05:27:30;2.50;;;1.80;;
75912;SDS011;64592;52.168;21.040;2023-08-07T05:32:32;3.30;;;1.92;;
75912;SDS011;64592;52.168;21.040;2023-08-07T05:37:34;3.58;;;2.00;;
75912;SDS011;64592;52.168;21.040;2023-08-07T05:42:37;1.92;;;1.42;;
75912;SDS011;64592;52.168;21.040;2023-08-07T05:47:39;3.03;;;1.77;;
75912;SDS011;64592;52.168;21.040;2023-08-07T05:52:40;3.05;;;1.92;;
75912;SDS011;64592;52.168;21.040;2023-08-07T05:57:43;3.30;;;2.03;;
75912;SDS011;64592;52.168;21.040;2023-08-07T06:02:45;3.47;;;2.65;;
75912;SDS011;64592;52.168;21.040;2023-08-07T06:07:47;3.40;;;2.17;;
75912;SDS011;64592;52.168;21.040;2023-08-07T06:12:50;2.95;;;2.13;;
75912;SDS011;64592;52.168;21.040;2023-08-07T06:17:51;2.70;;;2.05;;
75912;SDS011;64592;52.168;21.040;2023-08-07T06:22:53;2.88;;;2.00;;
75912;SDS011;64592;52.168;21.040;2023-08-07T06:27:56;2.88;;;2.05;;
75912;SDS011;64592;52.168;21.040;2023-08-07T06:32:58;3.20;;;2.20;;
75912;SDS011;64592;52.168;21.040;2023-08-07T06:38:00;3.03;;;2.00;;
75912;SDS011;64592;52.168;21.040;2023-08-07T06:43:03;3.97;;;2.42;;
75912;SDS011;64592;52.168;21.040;2023-08-07T06:48:04;3.75;;;1.80;;
75912;SDS011;64592;52.168;21.040;2023-08-07T06:53:06;3.08;;;1.50;;
75912;SDS011;64592;52.168;21.040;2023-08-07T06:58:09;3.90;;;2.00;;
75912;SDS011;64592;52.168;21.040;2023-08-07T07:03:11;3.85;;;1.77;;
75912;SDS011;64592;52.168;21.040;2023-08-07T07:08:13;2.70;;;1.80;;
75912;SDS011;64592;52.168;21.040;2023-08-07T07:13:16;3.45;;;1.92;;
75912;SDS011;64592;52.168;21.040;2023-08-07T07:18:18;3.63;;;2.30;;
75912;SDS011;64592;52.168;21.040;2023-08-07T07:23:20;2.33;;;1.90;;
75912;SDS011;64592;52.168;21.040;2023-08-07T07:28:22;2.72;;;1.90;;
75912;SDS011;64592;52.168;21.040;2023-08-07T07:33:25;2.53;;;1.65;;
75912;SDS011;64592;52.168;21.040;2023-08-07T07:38:26;3.83;;;1.83;;
75912;SDS011;64592;52.168;21.040;2023-08-07T07:43:29;3.20;;;1.88;;
75912;SDS011;64592;52.168;21.040;2023-08-07T07:48:32;3.78;;;2.33;;
75912;SDS011;64592;52.168;21.040;2023-08-07T07:53:33;2.63;;;1.80;;
75912;SDS011;64592;52.168;21.040;2023-08-07T07:58:36;2.67;;;1.83;;
75912;SDS011;64592;52.168;21.040;2023-08-07T08:03:38;2.90;;;1.77;;
75912;SDS011;64592;52.168;21.040;2023-08-07T08:08:41;2.70;;;1.98;;
75912;SDS011;64592;52.168;21.040;2023-08-07T08:13:44;5.28;;;2.08;;
75912;SDS011;64592;52.168;21.040;2023-08-07T08:18:46;3.03;;;1.80;;
75912;SDS011;64592;52.168;21.040;2023-08-07T08:23:48;2.35;;;1.73;;
75912;SDS011;64592;52.168;21.040;2023-08-07T08:28:51;3.92;;;2.00;;
75912;SDS011;64592;52.168;21.040;2023-08-07T08:33:53;5.45;;;1.83;;
75912;SDS011;64592;52.168;21.040;2023-08-07T08:38:54;3.05;;;2.25;;
75912;SDS011;64592;52.168;21.040;2023-08-07T08:43:57;3.30;;;1.90;;
75912;SDS011;64592;52.168;21.040;2023-08-07T08:49:02;6.50;;;1.80;;
75912;SDS011;64592;52.168;21.040;2023-08-07T08:54:05;3.58;;;1.50;;
75912;SDS011;64592;52.168;21.040;2023-08-07T08:59:09;2.92;;;1.90;;
75912;SDS011;64592;52.168;21.040;2023-08-07T09:04:11;2.53;;;1.67;;
75912;SDS011;64592;52.168;21.040;2023-08-07T09:09:13;4.40;;;1.70;;
75912;SDS011;64592;52.168;21.040;2023-08-07T09:14:20;2.22;;;1.70;;
75912;SDS011;64592;52.168;21.040;2023-08-07T09:19:26;3.42;;;1.77;;
75912;SDS011;64592;52.168;21.040;2023-08-07T09:24:28;2.40;;;1.52;;
75912;SDS011;64592;52.168;21.040;2023-08-07T09:29:31;2.20;;;1.55;;
75912;SDS011;64592;52.168;21.040;2023-08-07T09:34:32;3.05;;;1.50;;
75912;SDS011;64592;52.168;21.040;2023-08-07T09:39:34;1.77;;;1.40;;
75912;SDS011;64592;52.168;21.040;2023-08-07T09:44:37;2.80;;;1.73;;
75912;SDS011;64592;52.168;21.040;2023-08-07T09:49:39;2.83;;;1.60;;
75912;SDS011;64592;52.168;21.040;2023-08-07T09:54:41;2.72;;;1.30;;
75912;SDS011;64592;52.168;21.040;2023-08-07T09:59:44;3.50;;;1.40;;
75912;SDS011;64592;52.168;21.040;2023-08-07T10:04:51;2.53;;;1.30;;
75912;SDS011;64592;52.168;21.040;2023-08-07T10:09:54;8.07;;;1.60;;
75912;SDS011;64592;52.168;21.040;2023-08-07T10:14:57;2.28;;;1.58;;
75912;SDS011;64592;52.168;21.040;2023-08-07T10:20:00;2.67;;;1.58;;
75912;SDS011;64592;52.168;21.040;2023-08-07T10:25:03;3.83;;;1.35;;
75912;SDS011;64592;52.168;21.040;2023-08-07T10:30:09;2.15;;;1.40;;
75912;SDS011;64592;52.168;21.040;2023-08-07T10:35:22;3.90;;;1.50;;
75912;SDS011;64592;52.168;21.040;2023-08-07T10:40:25;2.28;;;1.50;;
75912;SDS011;64592;52.168;21.040;2023-08-07T10:45:28;2.38;;;1.73;;
75912;SDS011;64592;52.168;21.040;2023-08-07T10:50:30;3.42;;;1.88;;
75912;SDS011;64592;52.168;21.040;2023-08-07T10:55:42;2.88;;;1.42;;
75912;SDS011;64592;52.168;21.040;2023-08-07T11:00:47;2.30;;;1.50;;
75912;SDS011;64592;52.168;21.040;2023-08-07T11:05:48;4.72;;;1.50;;
75912;SDS011;64592;52.168;21.040;2023-08-07T11:10:51;2.45;;;1.70;;
75912;SDS011;64592;52.168;21.040;2023-08-07T11:15:56;7.38;;;1.55;;
75912;SDS011;64592;52.168;21.040;2023-08-07T11:20:59;2.35;;;1.20;;
75912;SDS011;64592;52.168;21.040;2023-08-07T11:26:01;2.45;;;1.50;;
75912;SDS011;64592;52.168;21.040;2023-08-07T11:31:05;3.50;;;1.60;;
75912;SDS011;64592;52.168;21.040;2023-08-07T11:36:10;9.32;;;1.70;;
75912;SDS011;64592;52.168;21.040;2023-08-07T11:41:13;2.53;;;1.42;;
75912;SDS011;64592;52.168;21.040;2023-08-07T11:46:17;5.60;;;1.70;;
75912;SDS011;64592;52.168;21.040;2023-08-07T11:51:19;2.90;;;1.70;;
75912;SDS011;64592;52.168;21.040;2023-08-07T11:56:21;2.53;;;1.70;;
75912;SDS011;64592;52.168;21.040;2023-08-07T12:01:26;2.88;;;1.80;;
75912;SDS011;64592;52.168;21.040;2023-08-07T12:06:29;4.65;;;1.80;;
75912;SDS011;64592;52.168;21.040;2023-08-07T12:11:30;2.55;;;1.40;;
75912;SDS011;64592;52.168;21.040;2023-08-07T12:16:34;2.78;;;1.90;;
75912;SDS011;64592;52.168;21.040;2023-08-07T12:21:36;3.58;;;2.03;;
75912;SDS011;64592;52.168;21.040;2023-08-07T12:26:39;3.45;;;2.25;;
75912;SDS011;64592;52.168;21.040;2023-08-07T12:31:42;3.10;;;1.70;;
75912;SDS011;64592;52.168;21.040;2023-08-07T12:36:44;9.73;;;2.30;;
75912;SDS011;64592;52.168;21.040;2023-08-07T12:41:45;3.40;;;2.00;;
75912;SDS011;64592;52.168;21.040;2023-08-07T12:46:49;3.17;;;2.03;;
75912;SDS011;64592;52.168;21.040;2023-08-07T12:51:51;4.25;;;1.75;;
75912;SDS011;64592;52.168;21.040;2023-08-07T12:56:53;3.78;;;1.80;;
75912;SDS011;64592;52.168;21.040;2023-08-07T13:01:56;4.97;;;1.95;;
75912;SDS011;64592;52.168;21.040;2023-08-07T13:06:58;2.53;;;1.55;;
75912;SDS011;64592;52.168;21.040;2023-08-07T13:12:00;2.47;;;1.70;;
75912;SDS011;64592;52.168;21.040;2023-08-07T13:17:03;11.48;;;1.80;;
75912;SDS011;64592;52.168;21.040;2023-08-07T13:22:06;2.60;;;1.75;;
75912;SDS011;64592;52.168;21.040;2023-08-07T13:27:08;3.35;;;1.80;;
75912;SDS011;64592;52.168;21.040;2023-08-07T13:32:11;3.63;;;2.20;;
75912;SDS011;64592;52.168;21.040;2023-08-07T13:37:13;3.08;;;1.83;;
75912;SDS011;64592;52.168;21.040;2023-08-07T13:42:15;3.25;;;1.75;;
75912;SDS011;64592;52.168;21.040;2023-08-07T13:47:18;2.60;;;1.65;;
75912;SDS011;64592;52.168;21.040;2023-08-07T13:52:20;3.50;;;1.65;;
75912;SDS011;64592;52.168;21.040;2023-08-07T13:57:22;3.30;;;2.00;;
75912;SDS011;64592;52.168;21.040;2023-08-07T14:02:25;2.97;;;1.63;;
75912;SDS011;64592;52.168;21.040;2023-08-07T14:07:27;2.90;;;1.80;;
75912;SDS011;64592;52.168;21.040;2023-08-07T14:12:28;6.90;;;1.90;;
75912;SDS011;64592;52.168;21.040;2023-08-07T14:17:31;3.08;;;1.80;;
75912;SDS011;64592;52.168;21.040;2023-08-07T14:22:33;4.60;;;2.40;;
75912;SDS011;64592;52.168;21.040;2023-08-07T14:27:36;3.42;;;1.98;;
75912;SDS011;64592;52.168;21.040;2023-08-07T14:32:39;3.33;;;2.00;;
75912;SDS011;64592;52.168;21.040;2023-08-07T14:37:42;3.03;;;1.90;;
75912;SDS011;64592;52.168;21.040;2023-08-07T14:42:44;5.20;;;1.90;;
75912;SDS011;64592;52.168;21.040;2023-08-07T14:47:47;3.05;;;1.83;;
75912;SDS011;64592;52.168;21.040;2023-08-07T14:52:49;3.42;;;2.40;;
75912;SDS011;64592;52.168;21.040;2023-08-07T14:57:50;4.22;;;2.30;;
75912;SDS011;64592;52.168;21.040;2023-08-07T15:02:53;3.13;;;2.20;;
75912;SDS011;64592;52.168;21.040;2023-08-07T15:13:01;2.92;;;2.20;;
75912;SDS011;64592;52.168;21.040;2023-08-07T15:18:04;4.22;;;2.35;;
75912;SDS011;64592;52.168;21.040;2023-08-07T15:23:05;5.30;;;2.70;;
75912;SDS011;64592;52.168;21.040;2023-08-07T15:28:07;2.67;;;1.85;;
75912;SDS011;64592;52.168;21.040;2023-08-07T15:33:10;3.72;;;2.28;;
75912;SDS011;64592;52.168;21.040;2023-08-07T15:38:12;5.03;;;2.50;;
75912;SDS011;64592;52.168;21.040;2023-08-07T15:43:13;3.35;;;2.10;;
75912;SDS011;64592;52.168;21.040;2023-08-07T15:48:17;3.53;;;2.00;;
75912;SDS011;64592;52.168;21.040;2023-08-07T15:53:18;3.13;;;2.03;;
75912;SDS011;64592;52.168;21.040;2023-08-07T15:58:20;3.80;;;2.30;;
75912;SDS011;64592;52.168;21.040;2023-08-07T16:03:24;3.40;;;2.33;;
75912;SDS011;64592;52.168;21.040;2023-08-07T16:08:25;4.85;;;2.10;;
75912;SDS011;64592;52.168;21.040;2023-08-07T16:13:27;3.20;;;1.98;;
75912;SDS011;64592;52.168;21.040;2023-08-07T16:18:30;5.05;;;2.00;;
75912;SDS011;64592;52.168;21.040;2023-08-07T16:23:32;4.80;;;2.10;;
75912;SDS011;64592;52.168;21.040;2023-08-07T16:28:33;3.20;;;2.10;;
75912;SDS011;64592;52.168;21.040;2023-08-07T16:33:36;3.30;;;2.22;;
75912;SDS011;64592;52.168;21.040;2023-08-07T16:38:39;3.15;;;1.90;;
75912;SDS011;64592;52.168;21.040;2023-08-07T16:43:40;4.72;;;2.53;;
75912;SDS011;64592;52.168;21.040;2023-08-07T16:48:44;4.85;;;2.17;;
75912;SDS011;64592;52.168;21.040;2023-08-07T16:53:46;4.35;;;2.17;;
75912;SDS011;64592;52.168;21.040;2023-08-07T16:58:48;4.60;;;2.13;;
75912;SDS011;64592;52.168;21.040;2023-08-07T17:03:51;3.58;;;2.33;;
75912;SDS011;64592;52.168;21.040;2023-08-07T17:08:53;4.32;;;2.15;;
75912;SDS011;64592;52.168;21.040;2023-08-07T17:13:55;3.70;;;2.13;;
75912;SDS011;64592;52.168;21.040;2023-08-07T17:18:58;3.22;;;2.00;;
75912;SDS011;64592;52.168;21.040;2023-08-07T17:24:00;3.13;;;2.10;;
75912;SDS011;64592;52.168;21.040;2023-08-07T17:29:03;2.97;;;2.10;;
75912;SDS011;64592;52.168;21.040;2023-08-07T17:34:06;3.38;;;2.10;;
75912;SDS011;64592;52.168;21.040;2023-08-07T17:39:09;3.17;;;2.10;;
75912;SDS011;64592;52.168;21.040;2023-08-07T17:44:11;4.47;;;1.90;;
75912;SDS011;64592;52.168;21.040;2023-08-07T17:49:14;4.65;;;2.05;;
75912;SDS011;64592;52.168;21.040;2023-08-07T17:54:15;4.97;;;2.08;;
75912;SDS011;64592;52.168;21.040;2023-08-07T17:59:17;3.47;;;2.10;;
75912;SDS011;64592;52.168;21.040;2023-08-07T18:04:20;4.28;;;2.15;;
75912;SDS011;64592;52.168;21.040;2023-08-07T18:09:22;4.20;;;2.10;;
75912;SDS011;64592;52.168;21.040;2023-08-07T18:14:23;5.35;;;2.40;;
75912;SDS011;64592;52.168;21.040;2023-08-07T18:19:27;3.65;;;2.00;;
75912;SDS011;64592;52.168;21.040;2023-08-07T18:24:28;3.22;;;1.85;;
75912;SDS011;64592;52.168;21.040;2023-08-07T18:29:30;3.53;;;2.10;;
75912;SDS011;64592;52.168;21.040;2023-08-07T18:34:33;10.00;;;2.40;;
75912;SDS011;64592;52.168;21.040;2023-08-07T18:39:35;3.35;;;2.15;;
75912;SDS011;64592;52.168;21.040;2023-08-07T18:44:37;3.00;;;1.83;;
75912;SDS011;64592;52.168;21.040;2023-08-07T18:49:40;3.20;;;2.05;;
75912;SDS011;64592;52.168;21.040;2023-08-07T18:54:42;3.35;;;1.90;;
75912;SDS011;64592;52.168;21.040;2023-08-07T18:59:44;3.63;;;2.20;;
75912;SDS011;64592;52.168;21.040;2023-08-07T19:04:47;3.97;;;2.05;;
75912;SDS011;64592;52.168;21.040;2023-08-07T19:09:49;3.90;;;2.08;;
75912;SDS011;64592;52.168;21.040;2023-08-07T19:14:50;5.35;;;2.25;;
75912;SDS011;64592;52.168;21.040;2023-08-07T19:19:54;3.28;;;2.20;;
75912;SDS011;64592;52.168;21.040;2023-08-07T19:24:55;4.78;;;2.10;;
75912;SDS011;64592;52.168;21.040;2023-08-07T19:29:58;4.95;;;2.13;;
75912;SDS011;64592;52.168;21.040;2023-08-07T19:35:02;3.78;;;2.25;;
75912;SDS011;64592;52.168;21.040;2023-08-07T19:40:04;2.90;;;2.03;;
75912;SDS011;64592;52.168;21.040;2023-08-07T19:45:08;3.30;;;2.08;;
75912;SDS011;64592;52.168;21.040;2023-08-07T19:50:12;2.70;;;2.10;;
75912;SDS011;64592;52.168;21.040;2023-08-07T19:55:13;3.47;;;2.35;;
75912;SDS011;64592;52.168;21.040;2023-08-07T20:00:17;3.08;;;1.73;;
75912;SDS011;64592;52.168;21.040;2023-08-07T20:05:20;3.97;;;2.60;;
75912;SDS011;64592;52.168;21.040;2023-08-07T20:10:22;4.65;;;2.30;;
75912;SDS011;64592;52.168;21.040;2023-08-07T20:15:24;2.90;;;2.28;;
75912;SDS011;64592;52.168;21.040;2023-08-07T20:20:27;3.65;;;2.25;;
75912;SDS011;64592;52.168;21.040;2023-08-07T20:25:29;3.40;;;2.17;;
75912;SDS011;64592;52.168;21.040;2023-08-07T20:30:30;3.25;;;2.00;;
75912;SDS011;64592;52.168;21.040;2023-08-07T20:35:34;6.25;;;2.17;;
75912;SDS011;64592;52.168;21.040;2023-08-07T20:40:35;5.90;;;2.20;;
75912;SDS011;64592;52.168;21.040;2023-08-07T20:45:37;6.30;;;2.72;;
75912;SDS011;64592;52.168;21.040;2023-08-07T20:50:40;3.70;;;2.17;;
75912;SDS011;64592;52.168;21.040;2023-08-07T20:55:42;4.15;;;2.10;;
75912;SDS011;64592;52.168;21.040;2023-08-07T21:00:43;4.85;;;2.78;;
75912;SDS011;64592;52.168;21.040;2023-08-07T21:05:47;4.60;;;2.17;;
75912;SDS011;64592;52.168;21.040;2023-08-07T21:10:48;2.70;;;1.92;;
75912;SDS011;64592;52.168;21.040;2023-08-07T21:15:53;3.28;;;2.35;;
75912;SDS011;64592;52.168;21.040;2023-08-07T21:20:56;3.85;;;2.72;;
75912;SDS011;64592;52.168;21.040;2023-08-07T21:25:57;3.50;;;2.13;;
75912;SDS011;64592;52.168;21.040;2023-08-07T21:30:59;3.88;;;2.20;;
75912;SDS011;64592;52.168;21.040;2023-08-07T21:36:02;4.00;;;2.67;;
75912;SDS011;64592;52.168;21.040;2023-08-07T21:41:04;3.47;;;2.47;;
75912;SDS011;64592;52.168;21.040;2023-08-07T21:46:06;5.20;;;2.20;;
75912;SDS011;64592;52.168;21.040;2023-08-07T21:51:09;4.00;;;1.92;;
75912;SDS011;64592;52.168;21.040;2023-08-07T21:56:10;3.17;;;2.10;;
75912;SDS011;64592;52.168;21.040;2023-08-07T22:01:12;3.95;;;2.20;;
75912;SDS011;64592;52.168;21.040;2023-08-07T22:06:15;3.55;;;2.25;;
75912;SDS011;64592;52.168;21.040;2023-08-07T22:11:17;3.28;;;2.10;;
75912;SDS011;64592;52.168;21.040;2023-08-07T22:16:18;2.95;;;2.10;;
75912;SDS011;64592;52.168;21.040;2023-08-07T22:21:22;3.65;;;2.13;;
75912;SDS011;64592;52.168;21.040;2023-08-07T22:26:23;3.67;;;2.45;;
75912;SDS011;64592;52.168;21.040;2023-08-07T22:31:25;4.20;;;2.33;;
75912;SDS011;64592;52.168;21.040;2023-08-07T22:36:28;4.47;;;2.92;;
75912;SDS011;64592;52.168;21.040;2023-08-07T22:41:30;3.88;;;2.45;;
75912;SDS011;64592;52.168;21.040;2023-08-07T22:46:33;6.88;;;2.42;;
75912;SDS011;64592;52.168;21.040;2023-08-07T22:51:36;4.25;;;2.47;;
75912;SDS011;64592;52.168;21.040;2023-08-07T22:56:37;4.80;;;2.10;;
75912;SDS011;64592;52.168;21.040;2023-08-07T23:01:39;4.78;;;2.15;;
75912;SDS011;64592;52.168;21.040;2023-08-07T23:06:42;4.65;;;2.40;;
75912;SDS011;64592;52.168;21.040;2023-08-07T23:11:44;4.25;;;2.80;;
75912;SDS011;64592;52.168;21.040;2023-08-07T23:16:45;3.92;;;2.50;;
75912;SDS011;64592;52.168;21.040;2023-08-07T23:21:48;3.95;;;2.30;;
75912;SDS011;64592;52.168;21.040;2023-08-07T23:26:50;4.15;;;2.38;;
75912;SDS011;64592;52.168;21.040;2023-08-07T23:31:52;2.95;;;2.15;;
75912;SDS011;64592;52.168;21.040;2023-08-07T23:36:55;3.60;;;2.53;;
75912;SDS011;64592;52.168;21.040;2023-08-07T23:41:56;2.78;;;2.30;;
75912;SDS011;64592;52.168;21.040;2023-08-07T23:47:00;3.10;;;2.03;;
75912;SDS011;64592;52.168;21.040;2023-08-07T23:52:03;4.38;;;2.38;;
75912;SDS011;64592;52.168;21.040;2023-08-07T23:57:05;3.65;;;2.40;;
